Columbus, Ohio
Traffic Map
Current Weather Conditions
Columbus, Ohio
Broken Clouds
Broken Clouds
27°
Feels Like: 28°
Wind Chill: 27° Ceiling: 18000
Heat Index: 28° Visibility: 10mi
Dew Point: 19° Wind: 6mph
Humidity: 60% Direction: 170° (S)
Pressure: 29.9in Gusts: 0mph
Raw Report DataKCMH 292251Z 17005KT 10SM FEW040 FEW080 SCT130 BKN180 27/19 A2990 RMK AO2 SLP119 TCU DSNT E-SE T02720189
Traffic Incident Summary
Active as of:
Severity:
Category:
InformationThere was an issue retrieving the traffic information for this location. Please try a different location or try again shortly.
Advertisements
Track Severe Weather on mobile